Terminal Aerodrome Forecast
Issued by NWS Jackson, KY

Home | Current Version | Previous Version | Text Only | Print | Product List | Glossary On
Versions: 1 2 3 4 5 6 7 8 9 10 11 12 13 14 15
000
FTUS43 KJKL 272339
TAFLOZ
TAF
KLOZ 272339Z 2800/2824 02004KT 6SM SHRA BR VCTS SCT050CB BKN070
      TEMPO 2800/2801 4SM TS BKN050CB
     FM280400 18003KT 4SM SHRA BR VCTS SCT020CB OVC050
     FM281000 22005KT 1SM BR OVC010
     FM281500 23010KT P6SM OVC015=

USA.gov is the U.S. government's official web portal to all federal, state and local government web resources and services.